createdAt,value
2022-12-15T00:00:39.328Z,98001.03
2022-12-15T00:03:26.606Z,98031.09
2022-12-15T00:06:14.078Z,98053.97
2022-12-15T00:09:00.825Z,98065.03
2022-12-15T00:11:47.247Z,98041.44
2022-12-15T00:14:34.062Z,98050.53
2022-12-15T00:17:20.567Z,98029.97
2022-12-15T00:20:07.348Z,98038.75
2022-12-15T00:22:54.192Z,98004.84
2022-12-15T00:25:41.357Z,98053.66
2022-12-15T00:28:27.803Z,98019.53
2022-12-15T00:31:16.544Z,98058.94
2022-12-15T00:34:02.998Z,98058.75
2022-12-15T00:36:49.963Z,98050.53
2022-12-15T00:39:18.022Z,98070.72
2022-12-15T00:41:45.981Z,98072.59
2022-12-15T00:44:18.907Z,98064.25
2022-12-15T00:46:54.788Z,98034.84
2022-12-15T00:49:45.081Z,98062.38
2022-12-15T00:52:34.168Z,98027.91
2022-12-15T00:55:21.768Z,98065.13
2022-12-15T00:58:08.885Z,98072.72
2022-12-15T01:00:55.324Z,98068.75
2022-12-15T01:03:43.438Z,98057.53
2022-12-15T01:06:34.678Z,98058.59
2022-12-15T01:09:23.574Z,98062.44
2022-12-15T01:12:10.687Z,98061.81
2022-12-15T01:14:57.849Z,98053.91
2022-12-15T01:17:44.624Z,98013.44
2022-12-15T01:20:18.716Z,98038.28
2022-12-15T01:22:49.988Z,97965.72
2022-12-15T01:25:20.464Z,98044.84
2022-12-15T01:27:49.784Z,98042.63
2022-12-15T01:30:24.993Z,98039.19
2022-12-15T01:32:53.519Z,98040.38
2022-12-15T01:35:22.548Z,98010.00
2022-12-15T01:37:51.000Z,98014.78
2022-12-15T01:40:39.509Z,98006.69
2022-12-15T01:43:22.577Z,98016.78
2022-12-15T01:45:57.919Z,98041.53
2022-12-15T01:48:49.778Z,98040.47
2022-12-15T01:51:34.182Z,98041.41
2022-12-15T01:54:10.656Z,98040.28
2022-12-15T01:56:49.742Z,98037.88
2022-12-15T01:59:36.049Z,98046.19
2022-12-15T02:02:04.111Z,98042.03
2022-12-15T02:04:33.793Z,98040.72
2022-12-15T02:07:01.770Z,98012.97
2022-12-15T02:09:30.619Z,98007.97
2022-12-15T02:12:10.399Z,98050.19
2022-12-15T02:15:05.195Z,98046.97
2022-12-15T02:17:55.573Z,98049.56
2022-12-15T02:21:07.476Z,98041.75
2022-12-15T02:24:19.890Z,97997.88
2022-12-15T02:27:34.604Z,98052.19
2022-12-15T02:30:47.379Z,98050.31
2022-12-15T02:33:30.156Z,98023.38
2022-12-15T02:36:22.120Z,98058.09
2022-12-15T02:38:50.039Z,98060.63
2022-12-15T02:41:43.496Z,98058.97
2022-12-15T02:44:47.552Z,98021.44
2022-12-15T02:47:24.179Z,98031.97
2022-12-15T02:50:40.841Z,98067.94
2022-12-15T02:53:48.817Z,98066.97
2022-12-15T02:56:48.842Z,98028.53
2022-12-15T02:59:42.221Z,98064.16
2022-12-15T03:02:12.164Z,98032.06
2022-12-15T03:04:42.761Z,98057.91
2022-12-15T03:07:11.110Z,98064.66
2022-12-15T03:09:39.215Z,98062.06
2022-12-15T03:12:07.674Z,98064.44
2022-12-15T03:14:35.589Z,98026.84
2022-12-15T03:17:04.327Z,98037.66
2022-12-15T03:19:32.273Z,98046.63
2022-12-15T03:22:00.394Z,98058.50
2022-12-15T03:24:28.277Z,98051.22
2022-12-15T03:26:56.418Z,98066.13
2022-12-15T03:29:24.863Z,98039.03
2022-12-15T03:31:52.879Z,98078.66
2022-12-15T03:34:21.364Z,98078.94
2022-12-15T03:36:49.899Z,98082.81
2022-12-15T03:39:17.793Z,98048.41
2022-12-15T03:41:45.904Z,97968.91
2022-12-15T03:44:13.807Z,98048.00
2022-12-15T03:46:41.793Z,98090.34
2022-12-15T03:49:09.807Z,98081.34
2022-12-15T03:51:37.653Z,98100.94
2022-12-15T03:54:05.728Z,98102.09
2022-12-15T03:56:33.820Z,98098.06
2022-12-15T03:59:01.686Z,98060.91
2022-12-15T04:01:35.562Z,98104.28
2022-12-15T04:04:05.066Z,98100.22
2022-12-15T04:06:33.111Z,98103.56
2022-12-15T04:09:00.930Z,98105.03
2022-12-15T04:11:29.206Z,98105.03
2022-12-15T04:13:57.211Z,98107.31
2022-12-15T04:16:25.291Z,98100.00
2022-12-15T04:19:14.001Z,98108.34
2022-12-15T04:21:41.997Z,98097.72
2022-12-15T04:24:28.675Z,98113.56
2022-12-15T04:27:14.969Z,98108.16
2022-12-15T04:30:01.962Z,98077.53
2022-12-15T04:32:49.809Z,98106.91
2022-12-15T04:35:37.368Z,98125.28
2022-12-15T04:38:24.147Z,98131.63
2022-12-15T04:41:10.800Z,98133.41
2022-12-15T04:43:57.850Z,98131.31
2022-12-15T04:46:44.698Z,98121.94
2022-12-15T04:49:31.812Z,98142.28
2022-12-15T04:52:18.518Z,98142.41
2022-12-15T04:55:05.456Z,98140.81
2022-12-15T04:57:52.173Z,98164.19
2022-12-15T05:00:38.953Z,98167.81
2022-12-15T05:03:27.265Z,98159.59
2022-12-15T05:06:16.922Z,98128.50
2022-12-15T05:09:03.683Z,98135.31
2022-12-15T05:11:50.494Z,98127.59
2022-12-15T05:14:37.259Z,98184.94
2022-12-15T05:17:23.919Z,98183.06
2022-12-15T05:20:10.215Z,98193.28
2022-12-15T05:22:56.718Z,98150.09
2022-12-15T05:25:43.141Z,98205.72
2022-12-15T05:28:30.143Z,98170.47
2022-12-15T05:31:16.957Z,98209.16
2022-12-15T05:33:45.027Z,98215.22
2022-12-15T05:36:12.989Z,98210.53
2022-12-15T05:38:41.064Z,98211.16
2022-12-15T05:41:09.488Z,98222.94
2022-12-15T05:43:37.347Z,98197.47
2022-12-15T05:46:05.942Z,98235.16
2022-12-15T05:48:33.739Z,98242.97
2022-12-15T05:51:20.233Z,98237.22
2022-12-15T05:53:48.222Z,98255.06
2022-12-15T05:56:16.217Z,98251.66
2022-12-15T05:58:45.671Z,98263.00
2022-12-15T06:01:16.756Z,98235.78
2022-12-15T06:03:45.798Z,98241.06
2022-12-15T06:06:14.106Z,98255.38
2022-12-15T06:08:43.796Z,98285.38
2022-12-15T06:11:17.936Z,98282.22
2022-12-15T06:13:46.886Z,98297.03
2022-12-15T06:16:19.067Z,98304.34
2022-12-15T06:18:55.996Z,98309.97
2022-12-15T06:21:32.113Z,98311.84
2022-12-15T06:24:00.826Z,98316.03
2022-12-15T06:26:31.212Z,98316.75
2022-12-15T06:29:04.173Z,98316.84
2022-12-15T06:31:34.145Z,98309.44
2022-12-15T06:34:09.254Z,98291.69
2022-12-15T06:36:37.522Z,98297.00
2022-12-15T06:39:10.837Z,98347.47
2022-12-15T06:41:39.808Z,98353.59
2022-12-15T06:44:08.439Z,98305.97
2022-12-15T06:46:36.417Z,98300.06
2022-12-15T06:49:04.844Z,98346.19
2022-12-15T06:51:32.900Z,98335.84
2022-12-15T06:54:02.145Z,98357.78
2022-12-15T06:56:39.052Z,98329.34
2022-12-15T06:59:08.394Z,98367.53
2022-12-15T07:01:36.588Z,98371.41
2022-12-15T07:04:05.892Z,98375.69
2022-12-15T07:06:39.308Z,98351.34
2022-12-15T07:09:13.924Z,98359.81
2022-12-15T07:11:42.069Z,98395.75
2022-12-15T07:14:10.536Z,98376.16
2022-12-15T07:16:38.788Z,98377.97
2022-12-15T07:19:06.871Z,98418.84
2022-12-15T07:21:35.012Z,98423.66
2022-12-15T07:24:03.357Z,98386.22
2022-12-15T07:26:32.302Z,98434.00
2022-12-15T07:29:00.204Z,98434.63
2022-12-15T07:31:28.098Z,98397.19
2022-12-15T07:33:58.783Z,98432.44
2022-12-15T07:36:27.853Z,98444.50
2022-12-15T07:39:01.287Z,98460.53
2022-12-15T07:41:30.237Z,98453.44
2022-12-15T07:43:58.902Z,98458.88
2022-12-15T07:46:29.221Z,98464.09
2022-12-15T07:48:57.361Z,98464.69
2022-12-15T07:51:25.327Z,98433.72
2022-12-15T07:53:53.528Z,98478.25
2022-12-15T07:56:21.693Z,98439.94
2022-12-15T07:58:49.864Z,98489.25
2022-12-15T08:01:18.167Z,98494.88
2022-12-15T08:03:46.517Z,98508.25
2022-12-15T08:06:16.245Z,98492.06
2022-12-15T08:08:50.766Z,98493.91
2022-12-15T08:11:22.649Z,98484.81
2022-12-15T08:14:02.710Z,98533.28
2022-12-15T08:16:33.383Z,98460.19
2022-12-15T08:19:01.411Z,98520.19
2022-12-15T08:21:31.359Z,98520.94
2022-12-15T08:24:01.023Z,98536.63
2022-12-15T08:26:31.064Z,98531.41
2022-12-15T08:31:55.418Z,98483.22
2022-12-15T08:34:23.513Z,98535.28
2022-12-15T08:36:51.584Z,98524.75
2022-12-15T08:39:20.816Z,98539.63
2022-12-15T08:41:50.029Z,98508.00
2022-12-15T08:44:18.185Z,98517.22
2022-12-15T08:46:46.409Z,98573.53
2022-12-15T08:49:18.056Z,98575.22
2022-12-15T08:51:50.907Z,98541.25
2022-12-15T08:54:19.940Z,98582.09
2022-12-15T08:56:48.571Z,98575.94
2022-12-15T08:59:16.815Z,98581.09
2022-12-15T09:01:45.211Z,98530.50
2022-12-15T09:04:13.641Z,98585.56
2022-12-15T09:06:42.756Z,98581.50
2022-12-15T09:09:14.072Z,98553.25
2022-12-15T09:11:41.991Z,98556.38
2022-12-15T09:14:10.244Z,98612.38
2022-12-15T09:16:38.298Z,98601.25
2022-12-15T09:19:08.379Z,98613.44
2022-12-15T09:21:36.917Z,98570.91
2022-12-15T09:24:05.554Z,98606.31
2022-12-15T09:26:34.631Z,98558.84
2022-12-15T09:29:03.486Z,98608.03
2022-12-15T09:31:36.936Z,98612.88
2022-12-15T09:34:05.955Z,98619.91
2022-12-15T09:36:33.966Z,98615.72
2022-12-15T09:39:03.258Z,98629.81
2022-12-15T09:41:34.859Z,98635.06
2022-12-15T09:44:13.029Z,98627.47
2022-12-15T09:47:17.373Z,98635.66
2022-12-15T09:49:55.720Z,98645.59
2022-12-15T09:52:26.862Z,98630.94
2022-12-15T09:54:56.997Z,98624.47
2022-12-15T09:57:44.873Z,98590.03
2022-12-15T10:00:21.991Z,98635.97
2022-12-15T10:03:15.083Z,98628.41
2022-12-15T10:06:18.394Z,98637.56
2022-12-15T10:08:58.649Z,98624.72
2022-12-15T10:11:38.552Z,98639.47
2022-12-15T10:14:32.235Z,98637.19
2022-12-15T10:17:21.914Z,98639.00
2022-12-15T10:20:20.515Z,98632.81
2022-12-15T10:22:51.526Z,98648.97
2022-12-15T10:25:30.186Z,98642.00
2022-12-15T10:28:16.652Z,98646.63
2022-12-15T10:31:13.087Z,98608.19
2022-12-15T10:33:48.689Z,98645.25
2022-12-15T10:36:18.769Z,98566.72
2022-12-15T10:38:50.660Z,98631.47
2022-12-15T10:41:22.950Z,98675.81
2022-12-15T10:43:53.695Z,98651.38
2022-12-15T10:46:25.332Z,98653.53
2022-12-15T10:49:07.873Z,98662.13
2022-12-15T10:51:43.714Z,98658.16
2022-12-15T10:54:16.588Z,98606.31
2022-12-15T10:57:03.261Z,98617.28
2022-12-15T10:59:35.539Z,98664.44
2022-12-15T11:02:25.298Z,98663.06
2022-12-15T11:05:17.116Z,98621.91
2022-12-15T11:07:46.393Z,98620.16
2022-12-15T11:10:27.304Z,98671.59
2022-12-15T11:13:13.723Z,98671.44
2022-12-15T11:18:53.911Z,98671.72
2022-12-15T11:21:44.414Z,98671.97
2022-12-15T11:24:35.371Z,98677.63
2022-12-15T11:27:36.151Z,98622.91
2022-12-15T11:30:20.994Z,98687.88
2022-12-15T11:32:55.807Z,98652.88
2022-12-15T11:35:46.573Z,98679.50
2022-12-15T11:38:35.117Z,98688.56
2022-12-15T11:41:46.121Z,98658.78
2022-12-15T11:44:30.127Z,98679.66
2022-12-15T11:47:22.120Z,98686.13
2022-12-15T11:49:52.957Z,98688.94
2022-12-15T11:52:30.336Z,98693.09
2022-12-15T11:55:32.154Z,98652.78
2022-12-15T11:58:23.586Z,98699.63
2022-12-15T12:01:03.113Z,98663.59
2022-12-15T12:03:57.314Z,98713.78
2022-12-15T12:07:06.054Z,98716.00
2022-12-15T12:10:04.085Z,98718.00
2022-12-15T12:12:45.788Z,98710.59
2022-12-15T12:15:36.332Z,98723.28
2022-12-15T12:18:26.053Z,98693.34
2022-12-15T12:21:03.806Z,98743.50
2022-12-15T12:23:58.815Z,98727.44
2022-12-15T12:26:46.454Z,98706.78
2022-12-15T12:29:26.695Z,98741.72
2022-12-15T12:32:00.557Z,98752.00
2022-12-15T12:38:12.462Z,98629.09
2022-12-15T12:41:30.413Z,98751.53
2022-12-15T12:44:10.969Z,98759.34
2022-12-15T12:46:49.111Z,98723.28
2022-12-15T12:49:38.783Z,98759.94
2022-12-15T12:52:28.677Z,98730.13
2022-12-15T12:55:14.463Z,98772.06
2022-12-15T12:57:44.175Z,98771.50
2022-12-15T13:00:17.287Z,98777.69
2022-12-15T13:03:17.652Z,98781.31
2022-12-15T13:05:51.671Z,98729.47
2022-12-15T13:08:45.167Z,98782.81
2022-12-15T13:12:20.549Z,98784.56
2022-12-15T13:14:55.055Z,98798.75
2022-12-15T13:17:32.625Z,98794.66
2022-12-15T13:20:17.988Z,98799.88
2022-12-15T13:22:46.509Z,98812.56
2022-12-15T13:25:38.709Z,98811.84
2022-12-15T13:28:31.099Z,98683.84
2022-12-15T13:31:18.291Z,98822.75
2022-12-15T13:33:56.142Z,98815.75
2022-12-15T13:36:43.252Z,98820.66
2022-12-15T13:39:17.382Z,98826.34
2022-12-15T13:42:31.442Z,98825.50
2022-12-15T13:44:48.954Z,98791.41
2022-12-15T13:47:25.890Z,98829.78
2022-12-15T13:50:07.211Z,98824.66
2022-12-15T13:53:17.037Z,98786.38
2022-12-15T13:55:39.520Z,98827.78
2022-12-15T13:58:18.392Z,98829.84
2022-12-15T14:00:57.199Z,98821.75
2022-12-15T14:03:26.243Z,98816.78
2022-12-15T14:05:59.853Z,98795.25
2022-12-15T14:08:30.589Z,98833.72
2022-12-15T14:11:16.516Z,98757.69
2022-12-15T14:13:54.265Z,98805.34
2022-12-15T14:16:23.639Z,98850.19
2022-12-15T14:19:17.817Z,98854.53
2022-12-15T14:21:59.624Z,98828.34
2022-12-15T14:27:30.869Z,98831.50
2022-12-15T14:30:29.549Z,98863.44
2022-12-15T14:33:08.256Z,98796.97
2022-12-15T14:35:51.587Z,98851.38
2022-12-15T14:38:35.863Z,98855.94
2022-12-15T14:41:05.946Z,98822.47
2022-12-15T14:43:39.439Z,98873.19
2022-12-15T14:46:22.509Z,98869.06
2022-12-15T14:49:04.789Z,98828.88
2022-12-15T14:51:46.955Z,98875.63
2022-12-15T14:54:39.309Z,98892.78
2022-12-15T14:57:09.936Z,98901.78
2022-12-15T14:59:44.338Z,98858.06
2022-12-15T15:02:25.431Z,98890.78
2022-12-15T15:03:06.889Z,98637.41
2022-12-15T15:03:10.519Z,98701.75
2022-12-15T15:03:14.311Z,98880.59
2022-12-15T15:05:04.305Z,98884.31
2022-12-15T15:07:34.346Z,98890.19
2022-12-15T15:10:04.014Z,98868.25
2022-12-15T15:12:47.881Z,98898.97
2022-12-15T15:15:20.385Z,98859.38
2022-12-15T15:17:57.518Z,98816.56
2022-12-15T15:20:30.587Z,98914.28
2022-12-15T15:23:07.784Z,98915.97
2022-12-15T15:25:54.544Z,98863.03
2022-12-15T15:28:39.532Z,98920.66
2022-12-15T15:31:25.771Z,98929.09
2022-12-15T15:33:57.289Z,98939.00
2022-12-15T15:36:34.496Z,98941.28
2022-12-15T15:39:09.857Z,98927.75
2022-12-15T15:41:38.216Z,98852.91
2022-12-15T15:44:14.953Z,98887.53
2022-12-15T15:46:55.252Z,98893.09
2022-12-15T15:49:24.917Z,98950.38
2022-12-15T15:51:55.354Z,98950.09
2022-12-15T15:54:30.160Z,98942.88
2022-12-15T15:56:58.983Z,98963.50
2022-12-15T15:59:28.986Z,98965.66
2022-12-15T16:01:58.992Z,98961.84
2022-12-15T16:04:27.696Z,98970.16
2022-12-15T16:06:55.904Z,98969.94
2022-12-15T16:09:25.683Z,98926.00
2022-12-15T16:11:54.382Z,98938.31
2022-12-15T16:14:22.334Z,98928.25
2022-12-15T16:16:51.679Z,98981.00
2022-12-15T16:19:19.642Z,98995.22
2022-12-15T16:21:51.095Z,98981.50
2022-12-15T16:24:20.733Z,98946.72
2022-12-15T16:26:52.393Z,98991.44
2022-12-15T16:29:21.943Z,98986.44
2022-12-15T16:31:53.363Z,98993.09
2022-12-15T16:34:22.229Z,98979.31
2022-12-15T16:36:51.168Z,98999.44
2022-12-15T16:39:31.178Z,99001.47
2022-12-15T16:41:59.510Z,99012.63
2022-12-15T16:44:29.638Z,98979.91
2022-12-15T16:47:00.192Z,99034.75
2022-12-15T16:49:35.040Z,99032.00
2022-12-15T16:52:06.782Z,98986.97
2022-12-15T16:54:36.293Z,99035.03
2022-12-15T16:57:05.841Z,98991.59
2022-12-15T16:59:35.280Z,99040.91
2022-12-15T17:02:29.906Z,99052.41
2022-12-15T17:04:58.588Z,98998.59
2022-12-15T17:07:28.336Z,98993.97
2022-12-15T17:09:56.944Z,99047.75
2022-12-15T17:12:25.418Z,99057.94
2022-12-15T17:14:53.600Z,99070.03
2022-12-15T17:17:21.629Z,99080.31
2022-12-15T17:20:28.028Z,99035.59
2022-12-15T17:22:40.308Z,99027.84
2022-12-15T17:25:17.487Z,99035.06
2022-12-15T17:27:46.302Z,99026.16
2022-12-15T17:31:35.734Z,99060.25
2022-12-15T17:34:30.763Z,98999.91
2022-12-15T17:37:05.089Z,99007.97
2022-12-15T17:39:34.990Z,98971.19
2022-12-15T17:42:03.899Z,99045.34
2022-12-15T17:44:38.340Z,99033.91
2022-12-15T17:47:08.936Z,99057.19
2022-12-15T17:49:38.984Z,99063.19
2022-12-15T17:52:34.583Z,99067.16
2022-12-15T17:55:08.188Z,99005.09
2022-12-15T17:57:36.203Z,99028.44
2022-12-15T18:00:17.741Z,99055.09
2022-12-15T18:02:46.086Z,99045.31
2022-12-15T18:05:15.360Z,99046.25
2022-12-15T18:07:43.904Z,99004.56
2022-12-15T18:10:25.913Z,99038.06
2022-12-15T18:12:54.004Z,99037.72
2022-12-15T18:15:32.020Z,99044.31
2022-12-15T18:18:01.446Z,99048.94
2022-12-15T18:20:29.638Z,99010.34
2022-12-15T18:22:57.612Z,99057.53
2022-12-15T18:25:28.278Z,99057.53
2022-12-15T18:27:58.641Z,99062.06
2022-12-15T18:30:27.493Z,99058.97
2022-12-15T18:32:59.320Z,99057.31
2022-12-15T18:35:39.968Z,99021.22
2022-12-15T18:38:28.871Z,99088.72
2022-12-15T18:41:01.423Z,99083.53
2022-12-15T18:43:33.728Z,99059.22
2022-12-15T18:46:02.030Z,99101.44
2022-12-15T18:48:35.328Z,99117.91
2022-12-15T18:51:13.138Z,99103.28
2022-12-15T18:53:41.798Z,99100.59
2022-12-15T18:56:14.459Z,99102.03
2022-12-15T18:58:43.029Z,99053.16
2022-12-15T19:01:11.117Z,99106.41
2022-12-15T19:03:41.127Z,99105.50
2022-12-15T19:06:36.342Z,99106.31
2022-12-15T19:09:18.138Z,99088.56
2022-12-15T19:12:09.425Z,99093.69
2022-12-15T19:14:40.328Z,99080.06
2022-12-15T19:17:41.632Z,99089.09
2022-12-15T19:20:38.319Z,99095.94
2022-12-15T19:23:07.648Z,99099.34
2022-12-15T19:25:36.253Z,99107.78
2022-12-15T19:28:07.174Z,99117.38
2022-12-15T19:30:41.594Z,99111.16
2022-12-15T19:33:13.810Z,99101.59
2022-12-15T19:35:50.782Z,99080.34
2022-12-15T19:38:30.268Z,99087.56
2022-12-15T19:40:59.750Z,99094.63
2022-12-15T19:43:28.164Z,99063.75
2022-12-15T19:45:56.685Z,99066.44
2022-12-15T19:48:24.901Z,99057.91
2022-12-15T19:50:54.807Z,98997.19
2022-12-15T19:53:27.609Z,99045.88
2022-12-15T19:56:01.491Z,99058.13
2022-12-15T19:58:33.006Z,99063.41
2022-12-15T20:01:12.401Z,99066.03
2022-12-15T20:03:50.530Z,99067.56
2022-12-15T20:06:23.719Z,99078.84
2022-12-15T20:08:57.164Z,99081.28
2022-12-15T20:11:32.243Z,99088.16
2022-12-15T20:14:02.195Z,99092.47
2022-12-15T20:16:30.457Z,99097.97
2022-12-15T20:18:58.426Z,99106.56
2022-12-15T20:21:35.717Z,99106.72
2022-12-15T20:24:18.937Z,99089.78
2022-12-15T20:26:57.767Z,99103.25
2022-12-15T20:29:31.191Z,99105.94
2022-12-15T20:32:00.308Z,99106.41
2022-12-15T20:34:28.398Z,99113.44
2022-12-15T20:36:57.271Z,99113.75
2022-12-15T20:39:29.677Z,99125.09
2022-12-15T20:41:58.279Z,99062.47
2022-12-15T20:44:26.383Z,99118.50
2022-12-15T20:46:55.021Z,99070.06
2022-12-15T20:49:24.007Z,99110.44
2022-12-15T20:51:52.604Z,99118.53
2022-12-15T20:54:23.063Z,99118.00
2022-12-15T20:56:51.852Z,99106.00
2022-12-15T20:59:23.937Z,99122.06
2022-12-15T21:01:53.428Z,99130.94
2022-12-15T21:04:30.304Z,99132.81
2022-12-15T21:06:58.907Z,99134.47
2022-12-15T21:09:27.098Z,99145.03
2022-12-15T21:11:55.902Z,99142.28
2022-12-15T21:14:24.654Z,99133.94
2022-12-15T21:16:52.917Z,99128.22
2022-12-15T21:19:22.891Z,99074.44
2022-12-15T21:21:54.981Z,99131.00
2022-12-15T21:24:27.837Z,99126.22
2022-12-15T21:26:56.625Z,99122.06
2022-12-15T21:29:27.839Z,99080.81
2022-12-15T21:31:56.195Z,99119.00
2022-12-15T21:34:24.406Z,99124.75
2022-12-15T21:36:54.953Z,99070.78
2022-12-15T21:39:36.136Z,99076.53
2022-12-15T21:42:14.353Z,99125.53
2022-12-15T21:44:42.899Z,99122.16
2022-12-15T21:47:52.167Z,99123.63
2022-12-15T21:50:20.833Z,99096.84
2022-12-15T21:52:49.387Z,99126.69
2022-12-15T21:55:27.909Z,99123.03
2022-12-15T21:57:57.499Z,99081.63
2022-12-15T22:00:26.323Z,99137.13
2022-12-15T22:02:54.768Z,99137.81
2022-12-15T22:05:30.913Z,99074.22
2022-12-15T22:08:12.820Z,99076.84
2022-12-15T22:10:40.707Z,99075.81
2022-12-15T22:13:16.514Z,99071.16
2022-12-15T22:15:45.123Z,99120.69
2022-12-15T22:18:19.959Z,99127.41
2022-12-15T22:20:50.001Z,99115.31
2022-12-15T22:23:19.105Z,99107.78
2022-12-15T22:25:56.308Z,99122.59
2022-12-15T22:28:27.523Z,99130.25
2022-12-15T22:30:56.746Z,99137.16
2022-12-15T22:33:26.474Z,99069.56
2022-12-15T22:35:56.223Z,99130.16
2022-12-15T22:38:24.455Z,99123.66
2022-12-15T22:40:57.088Z,99127.56
2022-12-15T22:43:39.574Z,99126.19
2022-12-15T22:46:12.770Z,99108.31
2022-12-15T22:48:43.720Z,99091.44
2022-12-15T22:51:14.989Z,99124.63
2022-12-15T22:53:42.960Z,99110.56
2022-12-15T22:56:29.616Z,99122.28
2022-12-15T22:59:03.573Z,99110.31
2022-12-15T23:01:31.923Z,99105.72
2022-12-15T23:04:00.076Z,99104.72
2022-12-15T23:06:28.416Z,99110.56
2022-12-15T23:08:56.516Z,99046.56
2022-12-15T23:11:39.977Z,99036.84
2022-12-15T23:14:17.370Z,99093.84
2022-12-15T23:16:46.620Z,99087.09
2022-12-15T23:19:24.201Z,99094.53
2022-12-15T23:21:52.379Z,99095.91
2022-12-15T23:24:20.664Z,99087.84
2022-12-15T23:26:48.914Z,99035.06
2022-12-15T23:29:17.690Z,99081.84
2022-12-15T23:31:47.506Z,99070.84
2022-12-15T23:34:15.761Z,99072.38
2022-12-15T23:36:43.787Z,99072.81
2022-12-15T23:39:12.223Z,99082.47
2022-12-15T23:41:40.749Z,99083.22
2022-12-15T23:44:08.539Z,99091.56
2022-12-15T23:46:36.639Z,99066.06
2022-12-15T23:49:04.581Z,99087.56
2022-12-15T23:51:32.575Z,99085.03
2022-12-15T23:54:00.689Z,99092.72
2022-12-15T23:56:28.850Z,99098.50
2022-12-15T23:58:59.444Z,99039.03
